Time;durP1;ratioP1;P1;durP2;ratioP2;P2;SDS_P1;SDS_P2;PMS_P1;PMS_P2;Temp;Humidity;BMP_temperature;BMP_pressure;BME280_temperature;BME280_humidity;BME280_pressure;Samples;Min_cycle;Max_cycle;Signal;HPM_P1;HPM_P2
2023/03/28 00:01:08;;;;;;;4.10;1.17;;;2.40;99.90;;;;;;4865696;29;20491;-59
2023/03/28 00:03:38;;;;;;;7.13;1.20;;;2.40;99.90;;;;;;4864176;29;20488;-59
2023/03/28 00:06:09;;;;;;;3.77;1.10;;;2.20;99.90;;;;;;4856421;29;20476;-59
2023/03/28 00:08:39;;;;;;;4.40;1.20;;;2.20;99.90;;;;;;4860915;29;20476;-59
2023/03/28 00:11:10;;;;;;;6.43;1.10;;;2.00;99.90;;;;;;4860832;29;20476;-59
2023/03/28 00:13:39;;;;;;;5.37;1.30;;;1.90;99.90;;;;;;4860725;29;21075;-59
2023/03/28 00:16:11;;;;;;;3.93;1.10;;;1.90;99.90;;;;;;4860714;29;20545;-59
2023/03/28 00:18:41;;;;;;;5.80;1.10;;;1.90;99.90;;;;;;4867786;29;20503;-58
2023/03/28 00:21:22;;;;;;;6.17;1.30;;;1.80;99.90;;;;;;4861157;29;20504;-59
2023/03/28 00:23:53;;;;;;;7.53;1.20;;;1.80;99.90;;;;;;4864024;29;20501;-59
2023/03/28 00:26:25;;;;;;;7.17;1.10;;;1.80;99.90;;;;;;4864037;29;20472;-59
2023/03/28 00:28:54;;;;;;;5.03;1.20;;;1.70;99.90;;;;;;4863920;29;20808;-58
2023/03/28 00:31:25;;;;;;;8.47;1.63;;;1.70;99.90;;;;;;4846096;29;20492;-59
2023/03/28 00:33:54;;;;;;;6.83;1.30;;;1.70;99.90;;;;;;4863633;29;20532;-59
2023/03/28 00:36:25;;;;;;;5.73;1.40;;;1.70;99.90;;;;;;4863772;29;20920;-59
2023/03/28 00:38:53;;;;;;;4.77;1.20;;;1.60;99.90;;;;;;4863642;29;20475;-59
2023/03/28 00:41:23;;;;;;;8.30;1.47;;;1.60;99.90;;;;;;4847279;29;20857;-59
2023/03/28 00:43:54;;;;;;;3.80;1.10;;;1.60;99.90;;;;;;4847124;29;20579;-59
2023/03/28 00:46:29;;;;;;;4.93;1.10;;;1.60;99.90;;;;;;4863729;29;20885;-59
2023/03/28 00:49:01;;;;;;;10.70;1.60;;;1.50;99.90;;;;;;4863469;29;20486;-59
2023/03/28 00:51:33;;;;;;;6.20;1.40;;;1.50;99.90;;;;;;4863419;29;20464;-59
2023/03/28 00:54:03;;;;;;;8.10;1.40;;;1.50;99.90;;;;;;4863677;29;20560;-59
2023/03/28 00:56:34;;;;;;;8.03;1.53;;;1.50;99.90;;;;;;4863345;29;20468;-59
2023/03/28 00:59:05;;;;;;;6.43;1.10;;;1.50;99.90;;;;;;4863518;29;20475;-59
2023/03/28 01:01:37;;;;;;;9.83;1.60;;;1.50;99.90;;;;;;4867269;29;20483;-59
2023/03/28 01:04:08;;;;;;;3.60;0.93;;;1.40;99.90;;;;;;4846851;29;20490;-59
2023/03/28 01:06:45;;;;;;;8.47;1.63;;;1.40;99.90;;;;;;4846278;29;20469;-59
2023/03/28 01:09:17;;;;;;;5.20;1.10;;;1.40;99.90;;;;;;4846604;29;20483;-59
2023/03/28 01:11:50;;;;;;;9.20;1.70;;;1.40;99.90;;;;;;4846542;29;20486;-59
2023/03/28 01:14:23;;;;;;;4.37;1.00;;;1.40;99.90;;;;;;4846563;29;20483;-59
2023/03/28 01:16:56;;;;;;;3.07;1.00;;;1.40;99.90;;;;;;4846382;29;21008;-59
2023/03/28 01:19:41;;;;;;;5.87;1.17;;;1.40;99.90;;;;;;4846284;29;20611;-59
2023/03/28 01:22:36;;;;;;;6.23;0.80;;;1.30;99.90;;;;;;4863169;29;20963;-59
2023/03/28 01:25:42;;;;;;;5.50;0.93;;;1.30;99.90;;;;;;4874197;29;20926;-59
2023/03/28 01:28:23;;;;;;;7.00;1.40;;;1.20;99.90;;;;;;4846232;29;20481;-59
2023/03/28 01:31:27;;;;;;;4.60;1.03;;;1.20;99.90;;;;;;4845874;29;20488;-59
2023/03/28 01:34:33;;;;;;;5.40;1.10;;;1.50;99.90;;;;;;4862164;29;20471;-59
2023/03/28 01:37:25;;;;;;;3.87;1.10;;;1.50;99.90;;;;;;4862968;29;20955;-59
2023/03/28 01:40:19;;;;;;;6.70;0.90;;;1.70;99.90;;;;;;4845222;29;21003;-59
2023/03/28 01:43:06;;;;;;;3.77;0.90;;;1.80;99.90;;;;;;4846191;29;20483;-59
2023/03/28 01:45:42;;;;;;;5.50;1.23;;;1.70;99.90;;;;;;4845808;29;20551;-59
2023/03/28 01:48:20;;;;;;;5.33;1.53;;;2.10;99.90;;;;;;4875795;29;20839;-59
2023/03/28 01:50:52;;;;;;;4.57;1.13;;;2.10;99.90;;;;;;4862332;29;20468;-59
2023/03/28 01:53:28;;;;;;;4.27;1.10;;;2.20;99.90;;;;;;4845680;29;20567;-60
2023/03/28 01:56:02;;;;;;;6.00;1.07;;;2.40;99.90;;;;;;4845763;29;20541;-59
2023/03/28 01:58:37;;;;;;;4.90;1.37;;;2.40;99.90;;;;;;4845743;29;20576;-59
2023/03/28 02:01:14;;;;;;;5.73;1.20;;;2.60;99.90;;;;;;4846018;29;20860;-59
2023/03/28 02:03:48;;;;;;;6.57;1.20;;;2.60;99.90;;;;;;4847931;29;20852;-59
2023/03/28 02:06:33;;;;;;;5.30;0.90;;;2.70;99.90;;;;;;4845624;29;20501;-59
2023/03/28 02:09:06;;;;;;;4.30;1.20;;;2.70;99.90;;;;;;4876389;29;20967;-60
2023/03/28 02:11:59;;;;;;;6.70;1.30;;;2.70;99.90;;;;;;4845552;29;20534;-59
2023/03/28 02:14:45;;;;;;;4.73;1.30;;;2.70;99.90;;;;;;4845439;29;20472;-59
2023/03/28 02:17:27;;;;;;;4.70;1.00;;;2.70;99.90;;;;;;4845495;29;20584;-59
2023/03/28 02:20:28;;;;;;;6.57;1.10;;;2.90;99.90;;;;;;4850153;29;20485;-60
2023/03/28 02:23:38;;;;;;;5.47;1.27;;;2.80;99.90;;;;;;4861331;29;20482;-59
2023/03/28 02:26:33;;;;;;;7.57;1.20;;;2.90;99.90;;;;;;4840071;29;20498;-59
2023/03/28 02:29:18;;;;;;;5.57;1.17;;;2.70;99.90;;;;;;4876224;29;20538;-59
2023/03/28 02:31:57;;;;;;;5.70;1.30;;;2.40;99.90;;;;;;4880018;29;21074;-59
2023/03/28 02:34:25;;;;;;;8.27;1.40;;;2.00;99.90;;;;;;4861570;29;20531;-59
2023/03/28 02:37:03;;;;;;;5.37;1.40;;;1.90;99.90;;;;;;4861814;29;21009;-59
2023/03/28 02:39:50;;;;;;;8.60;1.43;;;1.90;99.90;;;;;;4861679;29;20969;-59
2023/03/28 02:42:51;;;;;;;6.60;1.57;;;1.80;99.90;;;;;;4857391;29;20485;-59
2023/03/28 02:45:51;;;;;;;4.73;1.10;;;1.70;99.90;;;;;;4843111;29;21052;-59
2023/03/28 02:48:34;;;;;;;4.50;1.00;;;1.90;99.90;;;;;;4857292;29;21010;-59
2023/03/28 02:51:15;;;;;;;5.07;1.40;;;1.80;99.90;;;;;;4875558;29;20485;-59
2023/03/28 02:53:57;;;;;;;8.03;1.67;;;1.80;99.90;;;;;;4875588;29;20499;-59
2023/03/28 02:56:35;;;;;;;6.13;1.57;;;1.90;99.90;;;;;;4861430;29;20947;-58
2023/03/28 02:59:18;;;;;;;5.03;1.13;;;2.10;99.90;;;;;;4844853;29;20500;-59
2023/03/28 03:01:46;;;;;;;7.80;1.60;;;2.20;99.90;;;;;;4864817;29;20496;-59
2023/03/28 03:04:16;;;;;;;4.77;1.17;;;2.10;99.90;;;;;;4861158;29;20560;-59
2023/03/28 03:06:47;;;;;;;4.53;1.20;;;2.20;99.90;;;;;;4861114;29;20488;-59
2023/03/28 03:09:17;;;;;;;6.57;1.40;;;2.30;99.90;;;;;;4875234;29;20511;-59
2023/03/28 03:11:45;;;;;;;6.23;1.50;;;2.40;99.90;;;;;;4844367;29;20479;-59
2023/03/28 03:14:15;;;;;;;7.07;1.77;;;2.20;99.90;;;;;;4861373;29;20723;-59
2023/03/28 03:16:43;;;;;;;10.20;1.97;;;2.40;99.90;;;;;;4844200;29;20519;-59
2023/03/28 03:19:12;;;;;;;7.47;2.30;;;2.30;99.90;;;;;;4841351;29;20488;-59
2023/03/28 03:21:42;;;;;;;9.83;2.87;;;2.30;99.90;;;;;;4856632;29;20484;-60
2023/03/28 03:24:10;;;;;;;8.40;2.10;;;2.20;99.90;;;;;;4844237;29;20477;-59
2023/03/28 03:26:42;;;;;;;8.13;2.57;;;2.40;99.90;;;;;;4859443;29;20507;-59
2023/03/28 03:29:17;;;;;;;6.60;2.00;;;2.30;99.90;;;;;;4875086;29;20568;-60
2023/03/28 03:31:45;;;;;;;12.40;2.90;;;2.50;99.90;;;;;;4862342;29;20502;-59
2023/03/28 03:34:45;;;;;;;9.00;2.23;;;2.10;99.90;;;;;;4844082;29;20488;-59
2023/03/28 03:37:16;;;;;;;6.33;2.30;;;1.80;99.90;;;;;;4844083;29;20466;-60
2023/03/28 03:39:44;;;;;;;6.73;2.13;;;1.60;99.90;;;;;;4843756;29;21014;-59
2023/03/28 03:42:14;;;;;;;6.13;1.60;;;1.80;99.90;;;;;;4844026;29;20491;-59
2023/03/28 03:44:44;;;;;;;7.27;2.17;;;2.30;99.90;;;;;;4860571;29;20466;-60
2023/03/28 03:47:16;;;;;;;8.23;2.10;;;2.30;99.90;;;;;;4843746;29;20505;-59
2023/03/28 03:49:45;;;;;;;5.33;1.70;;;2.30;99.90;;;;;;4860373;29;20476;-59
2023/03/28 03:52:15;;;;;;;4.73;1.27;;;2.30;99.90;;;;;;4860533;29;20480;-60
2023/03/28 03:54:44;;;;;;;7.70;1.20;;;1.90;99.90;;;;;;4846328;29;20484;-59
2023/03/28 03:57:13;;;;;;;7.40;1.40;;;2.10;99.90;;;;;;4874285;29;20480;-59
2023/03/28 03:59:41;;;;;;;3.47;1.03;;;1.90;99.90;;;;;;4843789;29;20482;-58
2023/03/28 04:02:15;;;;;;;7.37;1.43;;;1.80;99.90;;;;;;4843035;29;20539;-59
2023/03/28 04:04:58;;;;;;;6.77;1.00;;;1.80;99.90;;;;;;4860344;29;20985;-59
2023/03/28 04:07:44;;;;;;;4.83;1.53;;;1.70;99.90;;;;;;4858346;29;20483;-59
2023/03/28 04:10:26;;;;;;;7.73;1.40;;;1.70;99.90;;;;;;4843493;29;21113;-59
2023/03/28 04:12:55;;;;;;;8.17;1.53;;;1.80;99.90;;;;;;4843683;29;20477;-59
2023/03/28 04:15:23;;;;;;;7.87;1.80;;;1.70;99.90;;;;;;4859132;29;20481;-59
2023/03/28 04:18:08;;;;;;;5.87;1.50;;;1.50;99.90;;;;;;4863710;29;20980;-59
2023/03/28 04:20:42;;;;;;;6.63;1.50;;;1.40;99.90;;;;;;4876961;29;20507;-59
2023/03/28 04:23:10;;;;;;;7.73;1.63;;;1.30;99.90;;;;;;4843792;29;20475;-59
2023/03/28 04:25:41;;;;;;;7.43;1.93;;;1.60;99.90;;;;;;4860460;29;20474;-59
2023/03/28 04:28:15;;;;;;;9.27;1.60;;;1.60;99.90;;;;;;4829430;29;20479;-59
2023/03/28 04:31:06;;;;;;;8.30;1.63;;;1.40;99.90;;;;;;4843202;29;20493;-59
2023/03/28 04:34:05;;;;;;;4.87;1.53;;;1.60;99.90;;;;;;4859916;29;20475;-60
2023/03/28 04:36:39;;;;;;;7.17;2.53;;;1.90;99.90;;;;;;4843632;29;21002;-59
2023/03/28 04:39:08;;;;;;;8.33;2.90;;;1.60;99.90;;;;;;4859377;29;21065;-59
2023/03/28 04:41:45;;;;;;;7.33;3.17;;;1.30;99.90;;;;;;4859877;29;20466;-59
2023/03/28 04:44:26;;;;;;;8.03;2.77;;;1.20;99.90;;;;;;4869622;29;20476;-59
2023/03/28 04:47:00;;;;;;;8.73;2.83;;;1.20;99.90;;;;;;4843522;29;20933;-59
2023/03/28 04:49:29;;;;;;;9.30;2.30;;;1.20;99.90;;;;;;4842808;29;20477;-59
2023/03/28 04:51:57;;;;;;;4.60;1.97;;;1.10;99.90;;;;;;4843203;29;20479;-59
2023/03/28 04:54:26;;;;;;;6.40;2.07;;;1.10;99.90;;;;;;4874048;29;20952;-58
2023/03/28 04:57:05;;;;;;;7.17;1.93;;;1.20;99.90;;;;;;4874219;29;21016;-59
2023/03/28 04:59:42;;;;;;;6.23;1.80;;;1.20;99.90;;;;;;4874211;29;20484;-59
2023/03/28 05:02:21;;;;;;;6.63;1.60;;;1.10;99.90;;;;;;4873604;29;20485;-59
2023/03/28 05:05:01;;;;;;;5.87;2.07;;;1.10;99.90;;;;;;4859911;29;20473;-59
2023/03/28 05:07:29;;;;;;;5.63;1.40;;;1.10;99.90;;;;;;4844163;29;20510;-59
2023/03/28 05:09:58;;;;;;;5.03;1.57;;;1.10;99.90;;;;;;4846521;29;21938;-59
2023/03/28 05:12:33;;;;;;;5.57;1.27;;;1.30;99.90;;;;;;4876940;29;20517;-59
2023/03/28 05:15:04;;;;;;;6.90;1.40;;;1.30;99.90;;;;;;4846365;29;20476;-59
2023/03/28 05:17:40;;;;;;;11.60;2.53;;;1.30;99.90;;;;;;4845093;29;20508;-59
2023/03/28 05:20:20;;;;;;;12.67;2.47;;;1.40;99.90;;;;;;4846114;29;20535;-59
2023/03/28 05:22:52;;;;;;;9.73;2.37;;;1.80;99.90;;;;;;4844789;29;20531;-59
2023/03/28 05:25:21;;;;;;;13.33;2.40;;;2.10;99.90;;;;;;4846515;29;20476;-59
2023/03/28 05:27:50;;;;;;;7.60;2.33;;;2.50;99.90;;;;;;4857785;29;20521;-59
2023/03/28 05:30:19;;;;;;;12.60;2.67;;;2.40;99.90;;;;;;4847345;29;20477;-60
2023/03/28 05:32:51;;;;;;;10.20;2.30;;;2.20;99.90;;;;;;4850281;29;20572;-59
2023/03/28 05:35:21;;;;;;;8.53;2.40;;;2.00;99.90;;;;;;4840654;29;20534;-59
2023/03/28 05:37:51;;;;;;;13.57;2.33;;;2.10;99.90;;;;;;4876814;29;20477;-60
2023/03/28 05:40:19;;;;;;;10.63;2.23;;;2.10;99.90;;;;;;4845284;29;20977;-59
2023/03/28 05:42:49;;;;;;;11.97;2.10;;;2.10;99.90;;;;;;4876499;29;20872;-59
2023/03/28 05:45:20;;;;;;;13.00;2.10;;;2.50;99.90;;;;;;4846077;29;20846;-59
2023/03/28 05:48:21;;;;;;;6.03;1.80;;;2.60;99.90;;;;;;4861185;29;20862;-59
2023/03/28 05:50:50;;;;;;;5.57;2.57;;;2.90;99.90;;;;;;4868610;29;20545;-59
2023/03/28 05:53:19;;;;;;;9.00;1.70;;;2.50;99.90;;;;;;4845714;29;20490;-59
2023/03/28 05:55:48;;;;;;;9.40;2.03;;;2.40;99.90;;;;;;4857476;29;20504;-59
2023/03/28 05:58:18;;;;;;;8.23;2.20;;;1.80;99.90;;;;;;4861235;29;20528;-59
2023/03/28 06:00:47;;;;;;;10.23;2.73;;;1.60;99.90;;;;;;4860674;29;20489;-59
2023/03/28 06:03:15;;;;;;;10.97;3.07;;;1.70;99.90;;;;;;4845602;29;20559;-59
2023/03/28 06:05:46;;;;;;;8.20;2.57;;;2.10;99.90;;;;;;4860862;29;20477;-59
2023/03/28 06:08:21;;;;;;;9.07;3.10;;;1.90;99.90;;;;;;4876212;29;20506;-59
2023/03/28 06:10:51;;;;;;;11.80;2.80;;;2.00;99.90;;;;;;4876134;29;20471;-60
2023/03/28 06:13:25;;;;;;;10.90;3.00;;;1.90;99.90;;;;;;4845287;29;20484;-59
2023/03/28 06:15:55;;;;;;;10.03;3.40;;;1.80;99.90;;;;;;4845598;29;20469;-59
2023/03/28 06:18:30;;;;;;;9.63;2.27;;;1.80;99.90;;;;;;4841924;29;20506;-59
2023/03/28 06:20:59;;;;;;;12.53;2.93;;;1.90;99.90;;;;;;4875592;29;20880;-59
2023/03/28 06:23:30;;;;;;;6.33;1.97;;;2.00;99.90;;;;;;4876036;29;20843;-59
2023/03/28 06:26:00;;;;;;;12.73;2.70;;;1.90;99.90;;;;;;4845583;29;20839;-59
2023/03/28 06:28:34;;;;;;;9.83;2.90;;;2.00;99.90;;;;;;4871137;29;20496;-59
2023/03/28 06:31:25;;;;;;;7.77;2.30;;;1.90;99.90;;;;;;4856865;29;20468;-58
2023/03/28 06:33:53;;;;;;;8.17;1.80;;;2.00;99.90;;;;;;4844734;29;20987;-59
2023/03/28 06:36:22;;;;;;;6.97;1.60;;;2.00;99.90;;;;;;4844901;29;20476;-59
2023/03/28 06:38:53;;;;;;;7.73;1.80;;;2.00;99.90;;;;;;4840191;29;20484;-59
2023/03/28 06:41:24;;;;;;;7.37;1.70;;;2.00;99.90;;;;;;4843142;29;20492;-59
2023/03/28 06:43:53;;;;;;;5.63;1.57;;;2.20;99.90;;;;;;4840850;29;21020;-59
2023/03/28 06:46:42;;;;;;;6.83;1.63;;;2.20;99.90;;;;;;4847671;29;20484;-59
2023/03/28 06:49:12;;;;;;;5.83;1.80;;;2.20;99.90;;;;;;4874084;29;20493;-59
2023/03/28 06:52:06;;;;;;;9.63;1.97;;;2.20;99.90;;;;;;4856499;29;20474;-58
2023/03/28 06:54:37;;;;;;;8.17;1.93;;;2.30;99.90;;;;;;4841632;29;21941;-59
2023/03/28 06:57:05;;;;;;;7.63;1.93;;;2.40;99.90;;;;;;4871238;29;20506;-59
2023/03/28 06:59:37;;;;;;;7.80;1.67;;;2.40;99.90;;;;;;4859087;29;20571;-59
2023/03/28 07:02:10;;;;;;;9.73;2.00;;;2.50;99.90;;;;;;4838291;29;20490;-59
2023/03/28 07:04:39;;;;;;;7.03;1.73;;;2.60;99.90;;;;;;4870040;29;20577;-59
2023/03/28 07:07:08;;;;;;;8.50;2.27;;;2.80;99.90;;;;;;4856071;29;21005;-59
2023/03/28 07:09:38;;;;;;;5.10;1.60;;;3.00;99.90;;;;;;4857756;29;20487;-59
2023/03/28 07:12:11;;;;;;;10.00;1.97;;;3.10;99.90;;;;;;4843026;29;21228;-59
2023/03/28 07:14:43;;;;;;;7.17;1.50;;;3.30;99.90;;;;;;4838695;29;21021;-59
2023/03/28 07:17:11;;;;;;;12.13;1.83;;;3.50;99.90;;;;;;4836805;29;20556;-59
2023/03/28 07:19:40;;;;;;;9.30;1.70;;;3.70;99.90;;;;;;4870581;29;20482;-60
2023/03/28 07:22:08;;;;;;;7.80;1.93;;;3.80;99.90;;;;;;4840263;29;20507;-60
2023/03/28 07:24:38;;;;;;;10.40;2.17;;;4.00;99.90;;;;;;4839624;29;20483;-60
2023/03/28 07:27:08;;;;;;;9.57;2.30;;;4.30;99.90;;;;;;4870565;29;21012;-60
2023/03/28 07:29:45;;;;;;;10.07;1.73;;;4.40;99.90;;;;;;4862521;29;20477;-59
2023/03/28 07:32:14;;;;;;;7.53;1.80;;;4.60;99.90;;;;;;4842518;29;20590;-59
2023/03/28 07:34:45;;;;;;;9.97;2.07;;;4.90;99.90;;;;;;4844446;29;20480;-60
2023/03/28 07:37:18;;;;;;;7.97;2.00;;;5.10;99.90;;;;;;4874987;29;21016;-59
2023/03/28 07:40:26;;;;;;;9.33;2.30;;;5.20;99.90;;;;;;4839692;29;20477;-59
2023/03/28 07:42:56;;;;;;;5.67;1.77;;;5.50;99.90;;;;;;4840097;29;20937;-59
2023/03/28 07:45:24;;;;;;;6.97;1.70;;;5.70;99.90;;;;;;4855944;29;21193;-60
2023/03/28 07:47:52;;;;;;;10.23;1.70;;;5.90;99.90;;;;;;4855851;29;20495;-60
2023/03/28 07:50:21;;;;;;;11.60;2.40;;;6.10;99.90;;;;;;4870061;29;20488;-59
2023/03/28 07:52:56;;;;;;;9.97;3.17;;;6.30;99.90;;;;;;4838513;29;20233;-60
2023/03/28 07:55:28;;;;;;;6.97;1.90;;;6.30;99.90;;;;;;4871405;29;20332;-61
2023/03/28 07:57:57;;;;;;;11.77;2.97;;;6.40;99.90;;;;;;4872497;29;20526;-61
2023/03/28 08:00:29;;;;;;;9.37;2.00;;;6.60;99.90;;;;;;4860924;29;20626;-60
2023/03/28 08:03:17;;;;;;;10.17;2.10;;;6.80;99.90;;;;;;4857657;29;20478;-60
2023/03/28 08:05:50;;;;;;;14.93;1.93;;;7.20;99.90;;;;;;4870731;29;20483;-60
2023/03/28 08:08:20;;;;;;;8.60;2.00;;;7.20;99.90;;;;;;4838159;29;21096;-60
2023/03/28 08:11:04;;;;;;;8.70;2.43;;;7.00;99.90;;;;;;4859021;29;20316;-61
2023/03/28 08:13:32;;;;;;;5.60;1.77;;;7.10;99.90;;;;;;4870130;29;20641;-60
2023/03/28 08:16:07;;;;;;;6.33;1.73;;;7.20;99.90;;;;;;4870635;29;20239;-60
2023/03/28 08:18:35;;;;;;;6.30;1.50;;;7.40;99.90;;;;;;4839127;29;20638;-60
2023/03/28 08:21:05;;;;;;;11.20;1.90;;;7.70;99.90;;;;;;4870236;29;20341;-61
2023/03/28 08:23:34;;;;;;;8.37;1.63;;;8.10;99.90;;;;;;4839133;29;20892;-60
2023/03/28 08:26:09;;;;;;;6.43;1.30;;;8.20;99.90;;;;;;4856209;29;20602;-60
2023/03/28 08:28:40;;;;;;;5.43;1.33;;;8.00;99.90;;;;;;4872416;29;20242;-60
2023/03/28 08:31:12;;;;;;;6.97;1.63;;;7.90;99.90;;;;;;4872464;29;20370;-60
2023/03/28 08:33:43;;;;;;;6.00;1.30;;;8.30;99.90;;;;;;4876163;29;20280;-61
2023/03/28 08:36:13;;;;;;;2.93;1.17;;;8.70;99.90;;;;;;4873405;29;20270;-60
2023/03/28 08:38:44;;;;;;;10.73;1.80;;;8.60;99.90;;;;;;4841950;29;20313;-61
2023/03/28 08:41:28;;;;;;;8.10;1.40;;;8.70;99.90;;;;;;4873278;29;21500;-61
2023/03/28 08:44:33;;;;;;;9.27;1.70;;;8.60;99.90;;;;;;4878143;29;20734;-61
2023/03/28 08:47:06;;;;;;;5.50;1.30;;;8.40;99.90;;;;;;4820461;29;20241;-61
2023/03/28 08:49:41;;;;;;;6.60;1.50;;;8.70;99.90;;;;;;4874710;29;20291;-61
2023/03/28 08:52:11;;;;;;;6.27;1.63;;;9.00;99.90;;;;;;4872472;29;20240;-60
2023/03/28 08:54:45;;;;;;;5.57;1.53;;;9.60;99.90;;;;;;4843595;29;21578;-61
2023/03/28 08:57:21;;;;;;;6.90;1.70;;;10.50;99.90;;;;;;4871510;29;20240;-61
2023/03/28 08:59:56;;;;;;;7.00;1.50;;;10.80;99.90;;;;;;4841022;29;20234;-61
2023/03/28 09:02:28;;;;;;;8.53;1.80;;;10.40;99.90;;;;;;4833306;29;20809;-61
2023/03/28 09:04:58;;;;;;;6.93;1.70;;;10.10;99.90;;;;;;4830775;29;20255;-61
2023/03/28 09:07:55;;;;;;;4.37;1.23;;;9.80;99.90;;;;;;4828053;29;20228;-61
2023/03/28 09:10:30;;;;;;;5.80;1.60;;;9.50;99.90;;;;;;4829964;29;20242;-61
2023/03/28 09:13:23;;;;;;;9.63;1.60;;;9.70;99.90;;;;;;4829412;29;20632;-61
2023/03/28 09:16:15;;;;;;;8.30;1.53;;;9.40;99.90;;;;;;4832931;29;21312;-62
2023/03/28 09:19:09;;;;;;;7.90;1.60;;;9.00;99.90;;;;;;4832735;29;20245;-61
2023/03/28 09:21:52;;;;;;;8.47;1.40;;;9.30;99.90;;;;;;4832982;29;20231;-60
2023/03/28 09:24:48;;;;;;;5.30;1.17;;;10.10;99.90;;;;;;4833586;29;20818;-61
2023/03/28 09:27:24;;;;;;;6.20;1.20;;;10.90;99.90;;;;;;4833837;29;20371;-61
2023/03/28 09:29:57;;;;;;;6.70;1.20;;;11.30;99.90;;;;;;4833172;29;20240;-61
2023/03/28 09:32:30;;;;;;;6.07;1.43;;;11.20;99.90;;;;;;4833278;29;20244;-61
2023/03/28 09:34:59;;;;;;;4.93;1.13;;;10.90;99.90;;;;;;4831708;29;20295;-61
2023/03/28 09:37:31;;;;;;;7.33;1.47;;;10.60;99.90;;;;;;4827296;29;20320;-61
2023/03/28 09:40:07;;;;;;;6.03;1.60;;;10.10;99.90;;;;;;4827469;29;20263;-61
2023/03/28 09:42:55;;;;;;;9.00;2.23;;;9.80;99.90;;;;;;4828654;29;21654;-61
2023/03/28 09:45:52;;;;;;;7.53;1.60;;;9.60;99.90;;;;;;4834817;29;20235;-61
2023/03/28 09:48:39;;;;;;;7.17;1.53;;;10.20;99.90;;;;;;4834040;29;20240;-60
2023/03/28 09:51:15;;;;;;;9.10;1.63;;;10.60;99.90;;;;;;4828302;29;20288;-61
2023/03/28 09:53:45;;;;;;;8.80;1.90;;;10.70;99.90;;;;;;4828048;29;20712;-61
2023/03/28 09:56:21;;;;;;;5.13;1.70;;;10.20;99.90;;;;;;4825552;29;20728;-61
2023/03/28 09:58:52;;;;;;;9.63;1.80;;;9.80;99.90;;;;;;4828138;29;20222;-61
2023/03/28 10:01:39;;;;;;;8.57;1.60;;;9.50;99.90;;;;;;4832426;29;20737;-61
2023/03/28 10:04:36;;;;;;;7.30;1.83;;;9.20;99.90;;;;;;4834616;29;20668;-61
2023/03/28 10:07:42;;;;;;;7.43;1.93;;;8.90;99.90;;;;;;4832523;29;20236;-61
2023/03/28 10:10:36;;;;;;;6.50;1.97;;;8.70;99.90;;;;;;4831837;29;20274;-61
2023/03/28 10:13:10;;;;;;;9.20;1.90;;;8.30;99.90;;;;;;4833239;29;20743;-61
2023/03/28 10:15:42;;;;;;;9.53;1.83;;;8.00;99.90;;;;;;4833959;29;20228;-60
2023/03/28 10:18:31;;;;;;;6.97;1.53;;;7.70;99.90;;;;;;4832779;29;20242;-60
2023/03/28 10:21:14;;;;;;;3.23;1.20;;;7.20;99.90;;;;;;4832912;29;20292;-61
2023/03/28 10:23:51;;;;;;;2.73;1.03;;;6.90;99.90;;;;;;4831819;29;20245;-60
2023/03/28 10:26:24;;;;;;;5.30;1.23;;;6.70;99.90;;;;;;4828661;29;20239;-60
2023/03/28 10:28:56;;;;;;;2.27;1.00;;;6.50;99.90;;;;;;4827338;29;20701;-60
2023/03/28 10:31:28;;;;;;;5.20;1.93;;;6.40;99.90;;;;;;4842654;29;20323;-60
2023/03/28 10:34:24;;;;;;;4.07;1.10;;;6.40;99.90;;;;;;4830229;29;20568;-60
2023/03/28 10:37:24;;;;;;;4.43;0.97;;;6.50;99.90;;;;;;4821537;29;20238;-59
2023/03/28 10:40:28;;;;;;;3.83;1.30;;;6.70;99.90;;;;;;4783235;29;20249;-60
2023/03/28 10:42:58;;;;;;;5.10;1.53;;;6.80;99.90;;;;;;4833957;29;20258;-60
2023/03/28 10:45:49;;;;;;;6.20;1.23;;;6.80;99.90;;;;;;4833006;29;21414;-60
2023/03/28 10:48:38;;;;;;;5.23;1.40;;;6.70;99.90;;;;;;4831047;29;20719;-60
2023/03/28 10:51:20;;;;;;;7.77;1.90;;;6.70;99.90;;;;;;4833615;29;20283;-60
2023/03/28 10:54:11;;;;;;;5.70;1.80;;;6.80;99.90;;;;;;4833207;29;20302;-60
2023/03/28 10:56:51;;;;;;;4.67;1.40;;;7.00;99.90;;;;;;4832476;29;20267;-60
2023/03/28 10:59:41;;;;;;;5.83;1.43;;;7.20;99.90;;;;;;4832762;29;20329;-60
2023/03/28 11:02:33;;;;;;;7.43;1.77;;;7.50;99.90;;;;;;4843390;29;20254;-60
2023/03/28 11:05:18;;;;;;;5.70;1.70;;;7.70;99.90;;;;;;4837073;29;20723;-60
2023/03/28 11:07:56;;;;;;;4.77;1.37;;;7.80;99.90;;;;;;4835424;29;20266;-60
2023/03/28 11:10:46;;;;;;;5.97;1.50;;;8.00;99.90;;;;;;4835715;29;20739;-60
2023/03/28 11:13:47;;;;;;;6.47;1.60;;;8.10;99.90;;;;;;4837958;29;20246;-61
2023/03/28 11:16:24;;;;;;;5.37;1.37;;;8.30;99.90;;;;;;4836742;29;20231;-61
2023/03/28 11:19:19;;;;;;;7.60;1.67;;;8.40;99.90;;;;;;4836431;29;20494;-60
2023/03/28 11:22:00;;;;;;;7.30;1.80;;;8.50;99.90;;;;;;4837429;29;20270;-60
2023/03/28 11:24:40;;;;;;;8.47;1.80;;;8.80;99.90;;;;;;4838711;29;20639;-60
2023/03/28 11:27:25;;;;;;;9.93;2.23;;;8.70;99.90;;;;;;4835034;29;20219;-61
2023/03/28 11:30:05;;;;;;;7.43;1.77;;;8.80;99.90;;;;;;4838003;29;20354;-61
2023/03/28 11:32:46;;;;;;;9.13;2.00;;;9.10;99.90;;;;;;4851663;29;20333;-60
2023/03/28 11:35:20;;;;;;;10.97;2.07;;;9.20;99.90;;;;;;4834917;29;20334;-61
2023/03/28 11:37:59;;;;;;;8.87;2.20;;;9.30;99.90;;;;;;4836482;29;20733;-60
2023/03/28 11:40:36;;;;;;;5.53;1.47;;;9.40;99.90;;;;;;4837519;29;20724;-61
2023/03/28 11:43:13;;;;;;;8.17;2.27;;;9.20;99.90;;;;;;4855165;29;20239;-60
2023/03/28 11:45:46;;;;;;;5.80;1.60;;;9.20;99.90;;;;;;4835892;29;20235;-60
2023/03/28 11:48:28;;;;;;;9.33;1.80;;;9.30;99.90;;;;;;4836270;29;21348;-61
2023/03/28 11:51:05;;;;;;;8.80;1.87;;;9.70;99.90;;;;;;4835280;29;20238;-61
2023/03/28 11:53:51;;;;;;;5.30;1.50;;;9.70;99.90;;;;;;4835876;29;21444;-61
2023/03/28 11:56:30;;;;;;;6.90;1.83;;;9.80;99.90;;;;;;4835571;29;20238;-60
2023/03/28 11:59:27;;;;;;;7.97;1.87;;;9.90;99.90;;;;;;4835292;29;20250;-60
2023/03/28 12:02:03;;;;;;;8.33;2.10;;;10.00;99.90;;;;;;4852235;29;20251;-61
2023/03/28 12:04:39;;;;;;;7.43;1.60;;;10.00;99.90;;;;;;4872859;29;20330;-61
2023/03/28 12:07:15;;;;;;;10.13;2.10;;;10.10;99.90;;;;;;4857299;29;20748;-61
2023/03/28 12:09:59;;;;;;;5.13;1.87;;;10.30;99.90;;;;;;4856878;29;20314;-61
2023/03/28 12:12:31;;;;;;;8.27;2.07;;;10.70;99.90;;;;;;4839679;29;20592;-61
2023/03/28 12:15:05;;;;;;;6.40;1.73;;;10.90;99.90;;;;;;4841107;29;20241;-61
2023/03/28 12:17:45;;;;;;;7.30;1.80;;;10.90;99.90;;;;;;4842290;29;20238;-62
2023/03/28 12:20:17;;;;;;;8.03;1.90;;;11.00;99.90;;;;;;4842813;29;20704;-61
2023/03/28 12:22:53;;;;;;;8.17;2.20;;;11.00;99.90;;;;;;4845836;29;20242;-61
2023/03/28 12:25:47;;;;;;;7.70;1.90;;;10.60;99.90;;;;;;4859536;29;20243;-61
2023/03/28 12:28:27;;;;;;;8.17;2.00;;;10.50;99.90;;;;;;4876251;29;20242;-61
2023/03/28 12:31:05;;;;;;;7.47;1.87;;;10.70;99.90;;;;;;4845351;29;20238;-61
2023/03/28 12:33:45;;;;;;;6.47;2.07;;;10.90;99.90;;;;;;4844484;29;20295;-61
2023/03/28 12:36:34;;;;;;;8.43;2.10;;;11.00;99.90;;;;;;4845015;29;20302;-61
2023/03/28 12:39:17;;;;;;;8.17;1.93;;;11.10;99.90;;;;;;4843065;29;20231;-61
2023/03/28 12:41:47;;;;;;;7.47;1.77;;;11.30;99.90;;;;;;4859311;29;20336;-62
2023/03/28 12:44:22;;;;;;;8.93;1.90;;;11.30;99.90;;;;;;4873875;29;20332;-62
2023/03/28 12:46:57;;;;;;;8.63;1.93;;;11.30;99.90;;;;;;4860551;29;20258;-61
2023/03/28 12:49:34;;;;;;;6.57;2.17;;;11.00;99.90;;;;;;4875288;29;20233;-60
2023/03/28 12:52:11;;;;;;;11.47;2.40;;;11.00;99.90;;;;;;4873272;29;20246;-61
2023/03/28 12:54:55;;;;;;;5.73;1.73;;;11.10;99.90;;;;;;4842054;29;20339;-61
2023/03/28 12:57:45;;;;;;;4.57;1.77;;;11.10;99.90;;;;;;4874246;29;20365;-61
2023/03/28 13:00:39;;;;;;;10.97;2.10;;;11.20;99.90;;;;;;4846567;29;20252;-60
2023/03/28 13:03:46;;;;;;;8.60;1.77;;;11.00;99.90;;;;;;4834939;29;20247;-61
2023/03/28 13:06:27;;;;;;;8.27;1.80;;;10.80;99.90;;;;;;4844121;29;20327;-61
2023/03/28 13:09:27;;;;;;;7.40;2.10;;;10.60;99.90;;;;;;4857979;29;20722;-61
2023/03/28 13:12:02;;;;;;;7.00;1.90;;;10.50;99.90;;;;;;4860201;29;20249;-61
2023/03/28 13:14:36;;;;;;;6.67;1.60;;;10.40;99.90;;;;;;4861507;29;20327;-60
2023/03/28 13:17:18;;;;;;;8.40;2.03;;;10.30;99.90;;;;;;4860327;29;20332;-61
2023/03/28 13:19:51;;;;;;;5.97;1.40;;;10.30;99.90;;;;;;4858931;29;20642;-61
2023/03/28 13:22:28;;;;;;;6.27;1.87;;;10.50;99.90;;;;;;4859715;29;20236;-61
2023/03/28 13:25:21;;;;;;;5.03;1.80;;;10.50;99.90;;;;;;4859943;29;20723;-61
2023/03/28 13:27:52;;;;;;;5.03;1.43;;;10.50;99.90;;;;;;4858194;29;20238;-61
2023/03/28 13:30:25;;;;;;;5.10;1.60;;;10.40;99.90;;;;;;4856758;29;20766;-61
2023/03/28 13:32:56;;;;;;;7.43;1.90;;;10.30;99.90;;;;;;4858617;29;20717;-61
2023/03/28 13:35:49;;;;;;;6.23;1.80;;;10.20;99.90;;;;;;4859981;29;20241;-61
2023/03/28 13:38:31;;;;;;;6.33;1.70;;;10.10;99.90;;;;;;4840332;29;20815;-61
2023/03/28 13:41:05;;;;;;;4.73;1.50;;;10.00;99.90;;;;;;4860221;29;20215;-60
2023/03/28 13:43:41;;;;;;;6.37;1.83;;;10.00;99.90;;;;;;4857537;29;20742;-61
2023/03/28 13:46:14;;;;;;;4.00;1.40;;;10.00;99.90;;;;;;4860334;29;20236;-61
2023/03/28 13:48:49;;;;;;;6.23;1.80;;;10.00;99.90;;;;;;4857810;29;20287;-62